sensor_id;sensor_type;location;lat;lon;timestamp;temperature;humidity
37530;DHT22;23374;52.758;6.872;2023-12-20T00:01:00;6.20;88.60
37530;DHT22;23374;52.758;6.872;2023-12-20T00:03:20;6.20;53.20
37530;DHT22;23374;52.758;6.872;2023-12-20T00:05:40;6.20;19.90
37530;DHT22;23374;52.758;6.872;2023-12-20T00:08:01;6.20;99.90
37530;DHT22;23374;52.758;6.872;2023-12-20T00:10:22;6.20;99.90
37530;DHT22;23374;52.758;6.872;2023-12-20T00:12:42;6.20;99.90
37530;DHT22;23374;52.758;6.872;2023-12-20T00:15:04;6.30;99.90
37530;DHT22;23374;52.758;6.872;2023-12-20T00:17:24;6.30;48.40
37530;DHT22;23374;52.758;6.872;2023-12-20T00:19:45;6.30;57.10
37530;DHT22;23374;52.758;6.872;2023-12-20T00:22:05;6.30;52.60
37530;DHT22;23374;52.758;6.872;2023-12-20T00:24:25;6.30;61.60
37530;DHT22;23374;52.758;6.872;2023-12-20T00:26:45;6.30;95.80
37530;DHT22;23374;52.758;6.872;2023-12-20T00:29:07;6.30;42.40
37530;DHT22;23374;52.758;6.872;2023-12-20T00:31:28;6.30;58.10
37530;DHT22;23374;52.758;6.872;2023-12-20T00:33:48;6.30;1.00
37530;DHT22;23374;52.758;6.872;2023-12-20T00:36:09;6.20;1.00
37530;DHT22;23374;52.758;6.872;2023-12-20T00:38:30;6.20;1.00
37530;DHT22;23374;52.758;6.872;2023-12-20T00:40:50;6.20;1.00
37530;DHT22;23374;52.758;6.872;2023-12-20T00:43:11;6.10;1.00
37530;DHT22;23374;52.758;6.872;2023-12-20T00:45:32;6.10;1.00
37530;DHT22;23374;52.758;6.872;2023-12-20T00:47:52;6.10;1.00
37530;DHT22;23374;52.758;6.872;2023-12-20T00:50:12;6.10;1.00
37530;DHT22;23374;52.758;6.872;2023-12-20T00:52:33;6.00;1.00
37530;DHT22;23374;52.758;6.872;2023-12-20T00:54:53;6.10;1.00
37530;DHT22;23374;52.758;6.872;2023-12-20T00:57:14;6.10;1.00
37530;DHT22;23374;52.758;6.872;2023-12-20T00:59:35;6.10;1.00
37530;DHT22;23374;52.758;6.872;2023-12-20T01:01:55;6.10;1.00
37530;DHT22;23374;52.758;6.872;2023-12-20T01:04:16;6.10;1.00
37530;DHT22;23374;52.758;6.872;2023-12-20T01:06:36;6.10;1.00
37530;DHT22;23374;52.758;6.872;2023-12-20T01:08:56;6.10;99.90
37530;DHT22;23374;52.758;6.872;2023-12-20T01:11:17;6.10;1.00
37530;DHT22;23374;52.758;6.872;2023-12-20T01:13:37;6.00;99.90
37530;DHT22;23374;52.758;6.872;2023-12-20T01:15:57;6.00;99.90
37530;DHT22;23374;52.758;6.872;2023-12-20T01:18:18;6.00;99.90
37530;DHT22;23374;52.758;6.872;2023-12-20T01:20:38;6.00;99.90
37530;DHT22;23374;52.758;6.872;2023-12-20T01:22:58;5.90;1.00
37530;DHT22;23374;52.758;6.872;2023-12-20T01:25:19;5.90;1.00
37530;DHT22;23374;52.758;6.872;2023-12-20T01:27:39;6.00;1.00
37530;DHT22;23374;52.758;6.872;2023-12-20T01:29:59;5.90;1.00
37530;DHT22;23374;52.758;6.872;2023-12-20T01:32:19;5.90;1.00
37530;DHT22;23374;52.758;6.872;2023-12-20T01:34:40;5.90;1.00
37530;DHT22;23374;52.758;6.872;2023-12-20T01:37:00;5.90;1.00
37530;DHT22;23374;52.758;6.872;2023-12-20T01:39:21;5.90;1.00
37530;DHT22;23374;52.758;6.872;2023-12-20T01:41:41;5.90;1.00
37530;DHT22;23374;52.758;6.872;2023-12-20T01:44:02;5.90;1.00
37530;DHT22;23374;52.758;6.872;2023-12-20T01:46:22;5.90;1.00
37530;DHT22;23374;52.758;6.872;2023-12-20T01:48:42;5.90;1.00
37530;DHT22;23374;52.758;6.872;2023-12-20T01:51:04;5.90;1.00
37530;DHT22;23374;52.758;6.872;2023-12-20T01:53:25;5.90;1.00
37530;DHT22;23374;52.758;6.872;2023-12-20T01:55:48;5.90;1.00
37530;DHT22;23374;52.758;6.872;2023-12-20T01:58:11;5.90;1.00
37530;DHT22;23374;52.758;6.872;2023-12-20T02:00:33;6.00;1.00
37530;DHT22;23374;52.758;6.872;2023-12-20T02:02:54;6.00;1.00
37530;DHT22;23374;52.758;6.872;2023-12-20T02:05:17;6.00;1.00
37530;DHT22;23374;52.758;6.872;2023-12-20T02:07:38;6.00;99.90
37530;DHT22;23374;52.758;6.872;2023-12-20T02:09:58;6.00;99.90
37530;DHT22;23374;52.758;6.872;2023-12-20T02:12:19;5.90;99.90
37530;DHT22;23374;52.758;6.872;2023-12-20T02:14:39;5.90;99.90
37530;DHT22;23374;52.758;6.872;2023-12-20T02:17:00;5.90;99.90
37530;DHT22;23374;52.758;6.872;2023-12-20T02:19:21;5.90;99.90
37530;DHT22;23374;52.758;6.872;2023-12-20T02:21:41;5.90;99.90
37530;DHT22;23374;52.758;6.872;2023-12-20T02:24:01;5.90;99.90
37530;DHT22;23374;52.758;6.872;2023-12-20T02:26:21;5.90;1.00
37530;DHT22;23374;52.758;6.872;2023-12-20T02:28:42;5.90;1.00
37530;DHT22;23374;52.758;6.872;2023-12-20T02:31:02;6.00;1.00
37530;DHT22;23374;52.758;6.872;2023-12-20T02:33:23;6.00;1.00
37530;DHT22;23374;52.758;6.872;2023-12-20T02:35:43;6.00;1.00
37530;DHT22;23374;52.758;6.872;2023-12-20T02:38:04;6.00;1.00
37530;DHT22;23374;52.758;6.872;2023-12-20T02:40:24;6.10;24.40
37530;DHT22;23374;52.758;6.872;2023-12-20T02:42:45;6.00;2.00
37530;DHT22;23374;52.758;6.872;2023-12-20T02:45:07;6.10;8.20
37530;DHT22;23374;52.758;6.872;2023-12-20T02:47:27;6.10;1.00
37530;DHT22;23374;52.758;6.872;2023-12-20T02:49:49;6.10;1.00
37530;DHT22;23374;52.758;6.872;2023-12-20T02:52:10;6.10;1.00
37530;DHT22;23374;52.758;6.872;2023-12-20T02:54:30;6.10;1.00
37530;DHT22;23374;52.758;6.872;2023-12-20T02:56:51;6.10;1.00
37530;DHT22;23374;52.758;6.872;2023-12-20T02:59:11;6.10;1.00
37530;DHT22;23374;52.758;6.872;2023-12-20T03:01:31;6.10;1.00
37530;DHT22;23374;52.758;6.872;2023-12-20T03:03:51;6.10;1.00
37530;DHT22;23374;52.758;6.872;2023-12-20T03:06:11;6.10;1.00
37530;DHT22;23374;52.758;6.872;2023-12-20T03:08:36;6.20;99.90
37530;DHT22;23374;52.758;6.872;2023-12-20T03:10:59;6.20;1.00
37530;DHT22;23374;52.758;6.872;2023-12-20T03:13:20;6.20;99.90
37530;DHT22;23374;52.758;6.872;2023-12-20T03:15:40;6.30;99.90
37530;DHT22;23374;52.758;6.872;2023-12-20T03:18:01;6.30;99.90
37530;DHT22;23374;52.758;6.872;2023-12-20T03:20:21;6.30;99.90
37530;DHT22;23374;52.758;6.872;2023-12-20T03:22:42;6.30;99.90
37530;DHT22;23374;52.758;6.872;2023-12-20T03:25:02;6.30;99.90
37530;DHT22;23374;52.758;6.872;2023-12-20T03:27:23;6.30;91.60
37530;DHT22;23374;52.758;6.872;2023-12-20T03:29:43;6.30;99.90
37530;DHT22;23374;52.758;6.872;2023-12-20T03:32:04;6.30;99.90
37530;DHT22;23374;52.758;6.872;2023-12-20T03:34:24;6.40;99.90
37530;DHT22;23374;52.758;6.872;2023-12-20T03:36:44;6.40;99.90
37530;DHT22;23374;52.758;6.872;2023-12-20T03:39:07;6.40;99.90
37530;DHT22;23374;52.758;6.872;2023-12-20T03:41:28;6.40;99.90
37530;DHT22;23374;52.758;6.872;2023-12-20T03:43:48;6.40;99.90
37530;DHT22;23374;52.758;6.872;2023-12-20T03:46:09;6.40;99.90
37530;DHT22;23374;52.758;6.872;2023-12-20T03:48:30;6.40;99.90
37530;DHT22;23374;52.758;6.872;2023-12-20T03:50:50;6.30;99.90
37530;DHT22;23374;52.758;6.872;2023-12-20T03:53:11;6.30;99.90
37530;DHT22;23374;52.758;6.872;2023-12-20T03:55:31;6.20;99.90
37530;DHT22;23374;52.758;6.872;2023-12-20T03:57:51;6.20;99.90
37530;DHT22;23374;52.758;6.872;2023-12-20T04:00:13;6.20;1.00
37530;DHT22;23374;52.758;6.872;2023-12-20T04:02:34;6.20;1.00
37530;DHT22;23374;52.758;6.872;2023-12-20T04:04:54;6.20;1.00
37530;DHT22;23374;52.758;6.872;2023-12-20T04:07:14;6.30;1.00
37530;DHT22;23374;52.758;6.872;2023-12-20T04:09:35;6.30;1.00
37530;DHT22;23374;52.758;6.872;2023-12-20T04:11:55;6.30;1.00
37530;DHT22;23374;52.758;6.872;2023-12-20T04:14:15;6.30;1.00
37530;DHT22;23374;52.758;6.872;2023-12-20T04:16:36;6.30;1.00
37530;DHT22;23374;52.758;6.872;2023-12-20T04:18:56;6.30;1.00
37530;DHT22;23374;52.758;6.872;2023-12-20T04:21:17;6.30;1.00
37530;DHT22;23374;52.758;6.872;2023-12-20T04:23:38;6.40;1.00
37530;DHT22;23374;52.758;6.872;2023-12-20T04:25:58;6.40;1.00
37530;DHT22;23374;52.758;6.872;2023-12-20T04:28:18;6.40;1.00
37530;DHT22;23374;52.758;6.872;2023-12-20T04:30:38;6.40;1.00
37530;DHT22;23374;52.758;6.872;2023-12-20T04:32:58;6.40;1.00
37530;DHT22;23374;52.758;6.872;2023-12-20T04:35:19;6.30;1.00
37530;DHT22;23374;52.758;6.872;2023-12-20T04:37:39;6.40;12.50
37530;DHT22;23374;52.758;6.872;2023-12-20T04:39:59;6.40;68.90
37530;DHT22;23374;52.758;6.872;2023-12-20T04:42:19;6.40;99.90
37530;DHT22;23374;52.758;6.872;2023-12-20T04:44:40;6.50;60.30
37530;DHT22;23374;52.758;6.872;2023-12-20T04:47:00;6.50;1.80
37530;DHT22;23374;52.758;6.872;2023-12-20T04:49:20;6.50;1.00
37530;DHT22;23374;52.758;6.872;2023-12-20T04:51:40;6.60;1.00
37530;DHT22;23374;52.758;6.872;2023-12-20T04:54:01;6.60;1.00
37530;DHT22;23374;52.758;6.872;2023-12-20T04:56:22;6.60;1.00
37530;DHT22;23374;52.758;6.872;2023-12-20T04:58:45;6.60;1.00
37530;DHT22;23374;52.758;6.872;2023-12-20T05:01:09;6.60;1.00
37530;DHT22;23374;52.758;6.872;2023-12-20T05:03:29;6.50;1.00
37530;DHT22;23374;52.758;6.872;2023-12-20T05:05:49;6.50;1.00
37530;DHT22;23374;52.758;6.872;2023-12-20T05:08:09;6.60;1.00
37530;DHT22;23374;52.758;6.872;2023-12-20T05:10:29;6.60;1.00
37530;DHT22;23374;52.758;6.872;2023-12-20T05:12:49;6.60;1.00
37530;DHT22;23374;52.758;6.872;2023-12-20T05:15:09;6.60;1.00
37530;DHT22;23374;52.758;6.872;2023-12-20T05:17:30;6.60;1.00
37530;DHT22;23374;52.758;6.872;2023-12-20T05:19:50;6.70;1.00
37530;DHT22;23374;52.758;6.872;2023-12-20T05:22:10;6.70;99.90
37530;DHT22;23374;52.758;6.872;2023-12-20T05:24:30;6.70;99.90
37530;DHT22;23374;52.758;6.872;2023-12-20T05:26:51;6.80;99.90
37530;DHT22;23374;52.758;6.872;2023-12-20T05:29:11;6.80;99.90
37530;DHT22;23374;52.758;6.872;2023-12-20T05:31:32;6.80;99.90
37530;DHT22;23374;52.758;6.872;2023-12-20T05:33:52;6.80;99.90
37530;DHT22;23374;52.758;6.872;2023-12-20T05:36:12;6.80;99.90
37530;DHT22;23374;52.758;6.872;2023-12-20T05:38:35;6.80;99.90
37530;DHT22;23374;52.758;6.872;2023-12-20T05:40:55;6.80;99.90
37530;DHT22;23374;52.758;6.872;2023-12-20T05:43:15;6.80;99.90
37530;DHT22;23374;52.758;6.872;2023-12-20T05:45:35;6.80;99.90
37530;DHT22;23374;52.758;6.872;2023-12-20T05:47:56;6.80;99.90
37530;DHT22;23374;52.758;6.872;2023-12-20T05:50:17;6.80;99.90
37530;DHT22;23374;52.758;6.872;2023-12-20T05:52:37;6.80;99.90
37530;DHT22;23374;52.758;6.872;2023-12-20T05:54:57;6.80;99.90
37530;DHT22;23374;52.758;6.872;2023-12-20T05:57:21;6.80;99.90
37530;DHT22;23374;52.758;6.872;2023-12-20T05:59:41;6.80;99.90
37530;DHT22;23374;52.758;6.872;2023-12-20T06:02:04;6.90;99.90
37530;DHT22;23374;52.758;6.872;2023-12-20T06:04:24;6.80;99.90
37530;DHT22;23374;52.758;6.872;2023-12-20T06:06:44;6.90;99.90
37530;DHT22;23374;52.758;6.872;2023-12-20T06:09:04;6.90;99.90
37530;DHT22;23374;52.758;6.872;2023-12-20T06:11:26;6.90;99.90
37530;DHT22;23374;52.758;6.872;2023-12-20T06:13:47;7.00;99.90
37530;DHT22;23374;52.758;6.872;2023-12-20T06:16:09;7.00;99.90
37530;DHT22;23374;52.758;6.872;2023-12-20T06:18:29;7.00;99.90
37530;DHT22;23374;52.758;6.872;2023-12-20T06:20:49;7.00;68.60
37530;DHT22;23374;52.758;6.872;2023-12-20T06:23:09;7.00;36.20
37530;DHT22;23374;52.758;6.872;2023-12-20T06:25:29;7.10;1.00
37530;DHT22;23374;52.758;6.872;2023-12-20T06:27:50;7.10;1.00
37530;DHT22;23374;52.758;6.872;2023-12-20T06:30:11;7.10;1.00
37530;DHT22;23374;52.758;6.872;2023-12-20T06:32:31;7.20;1.00
37530;DHT22;23374;52.758;6.872;2023-12-20T06:34:51;7.20;1.00
37530;DHT22;23374;52.758;6.872;2023-12-20T06:37:11;7.20;1.00
37530;DHT22;23374;52.758;6.872;2023-12-20T06:39:32;7.20;1.00
37530;DHT22;23374;52.758;6.872;2023-12-20T06:41:54;7.20;1.00
37530;DHT22;23374;52.758;6.872;2023-12-20T06:44:14;7.20;1.00
37530;DHT22;23374;52.758;6.872;2023-12-20T06:46:34;7.20;99.90
37530;DHT22;23374;52.758;6.872;2023-12-20T06:48:55;7.20;99.90
37530;DHT22;23374;52.758;6.872;2023-12-20T06:51:16;7.30;1.00
37530;DHT22;23374;52.758;6.872;2023-12-20T06:53:37;7.20;1.00
37530;DHT22;23374;52.758;6.872;2023-12-20T06:55:57;7.30;1.00
37530;DHT22;23374;52.758;6.872;2023-12-20T06:58:17;7.20;1.00
37530;DHT22;23374;52.758;6.872;2023-12-20T07:00:37;7.20;1.00
37530;DHT22;23374;52.758;6.872;2023-12-20T07:02:58;7.20;1.00
37530;DHT22;23374;52.758;6.872;2023-12-20T07:05:18;7.20;1.00
37530;DHT22;23374;52.758;6.872;2023-12-20T07:07:40;7.20;1.00
37530;DHT22;23374;52.758;6.872;2023-12-20T07:10:00;7.30;1.00
37530;DHT22;23374;52.758;6.872;2023-12-20T07:12:20;7.20;1.00
37530;DHT22;23374;52.758;6.872;2023-12-20T07:14:40;7.30;1.00
37530;DHT22;23374;52.758;6.872;2023-12-20T07:17:01;7.20;1.00
37530;DHT22;23374;52.758;6.872;2023-12-20T07:19:21;7.30;1.00
37530;DHT22;23374;52.758;6.872;2023-12-20T07:21:41;7.30;1.00
37530;DHT22;23374;52.758;6.872;2023-12-20T07:24:02;7.30;1.00
37530;DHT22;23374;52.758;6.872;2023-12-20T07:26:22;7.30;1.00
37530;DHT22;23374;52.758;6.872;2023-12-20T07:28:43;7.30;99.90
37530;DHT22;23374;52.758;6.872;2023-12-20T07:31:04;7.30;99.90
37530;DHT22;23374;52.758;6.872;2023-12-20T07:33:24;7.30;99.90
37530;DHT22;23374;52.758;6.872;2023-12-20T07:35:44;7.40;99.90
37530;DHT22;23374;52.758;6.872;2023-12-20T07:38:05;7.40;99.90
37530;DHT22;23374;52.758;6.872;2023-12-20T07:40:26;7.40;99.90
37530;DHT22;23374;52.758;6.872;2023-12-20T07:42:46;7.40;99.90
37530;DHT22;23374;52.758;6.872;2023-12-20T07:45:07;7.40;99.90
37530;DHT22;23374;52.758;6.872;2023-12-20T07:47:27;7.50;99.90
37530;DHT22;23374;52.758;6.872;2023-12-20T07:49:49;7.50;99.90
37530;DHT22;23374;52.758;6.872;2023-12-20T07:52:09;7.50;99.90
37530;DHT22;23374;52.758;6.872;2023-12-20T07:54:29;7.50;99.90
37530;DHT22;23374;52.758;6.872;2023-12-20T07:56:50;7.50;99.90
37530;DHT22;23374;52.758;6.872;2023-12-20T07:59:10;7.50;99.90
37530;DHT22;23374;52.758;6.872;2023-12-20T08:01:31;7.50;99.90
37530;DHT22;23374;52.758;6.872;2023-12-20T08:03:51;7.50;1.00
37530;DHT22;23374;52.758;6.872;2023-12-20T08:06:12;7.50;1.00
37530;DHT22;23374;52.758;6.872;2023-12-20T08:08:32;7.50;1.00
37530;DHT22;23374;52.758;6.872;2023-12-20T08:10:53;7.50;1.00
37530;DHT22;23374;52.758;6.872;2023-12-20T08:13:13;7.50;99.90
37530;DHT22;23374;52.758;6.872;2023-12-20T08:15:33;7.50;99.90
37530;DHT22;23374;52.758;6.872;2023-12-20T08:17:53;7.50;99.90
37530;DHT22;23374;52.758;6.872;2023-12-20T08:20:13;7.50;99.90
37530;DHT22;23374;52.758;6.872;2023-12-20T08:22:34;7.60;99.90
37530;DHT22;23374;52.758;6.872;2023-12-20T08:24:54;7.60;99.90
37530;DHT22;23374;52.758;6.872;2023-12-20T08:27:14;7.60;99.90
37530;DHT22;23374;52.758;6.872;2023-12-20T08:29:35;7.60;99.90
37530;DHT22;23374;52.758;6.872;2023-12-20T08:31:56;7.60;99.90
37530;DHT22;23374;52.758;6.872;2023-12-20T08:34:16;7.70;99.90
37530;DHT22;23374;52.758;6.872;2023-12-20T08:36:37;7.70;99.90
37530;DHT22;23374;52.758;6.872;2023-12-20T08:38:57;7.70;99.90
37530;DHT22;23374;52.758;6.872;2023-12-20T08:41:18;7.70;99.90
37530;DHT22;23374;52.758;6.872;2023-12-20T08:43:39;7.70;99.90
37530;DHT22;23374;52.758;6.872;2023-12-20T08:46:02;7.80;99.90
37530;DHT22;23374;52.758;6.872;2023-12-20T08:48:23;7.80;99.90
37530;DHT22;23374;52.758;6.872;2023-12-20T08:50:43;7.80;20.50
37530;DHT22;23374;52.758;6.872;2023-12-20T08:53:04;7.80;25.80
37530;DHT22;23374;52.758;6.872;2023-12-20T08:55:24;7.80;4.90
37530;DHT22;23374;52.758;6.872;2023-12-20T08:57:44;7.80;1.00
37530;DHT22;23374;52.758;6.872;2023-12-20T09:00:07;7.90;1.00
37530;DHT22;23374;52.758;6.872;2023-12-20T09:02:27;7.90;1.00
37530;DHT22;23374;52.758;6.872;2023-12-20T09:04:49;7.90;1.00
37530;DHT22;23374;52.758;6.872;2023-12-20T09:07:26;7.90;1.00
37530;DHT22;23374;52.758;6.872;2023-12-20T09:09:47;8.00;1.00
37530;DHT22;23374;52.758;6.872;2023-12-20T09:12:08;8.00;1.00
37530;DHT22;23374;52.758;6.872;2023-12-20T09:14:29;8.00;1.00
37530;DHT22;23374;52.758;6.872;2023-12-20T09:16:49;8.00;1.00
37530;DHT22;23374;52.758;6.872;2023-12-20T09:19:11;8.10;99.90
37530;DHT22;23374;52.758;6.872;2023-12-20T09:21:31;8.10;99.90
37530;DHT22;23374;52.758;6.872;2023-12-20T09:23:51;8.10;99.90
37530;DHT22;23374;52.758;6.872;2023-12-20T09:26:11;8.10;99.90
37530;DHT22;23374;52.758;6.872;2023-12-20T09:28:32;8.20;99.90
37530;DHT22;23374;52.758;6.872;2023-12-20T09:30:57;8.20;99.90
37530;DHT22;23374;52.758;6.872;2023-12-20T09:33:17;8.20;99.90
37530;DHT22;23374;52.758;6.872;2023-12-20T09:35:37;8.20;99.90
37530;DHT22;23374;52.758;6.872;2023-12-20T09:37:58;8.20;99.90
37530;DHT22;23374;52.758;6.872;2023-12-20T09:40:19;8.30;63.10
37530;DHT22;23374;52.758;6.872;2023-12-20T09:42:58;8.30;98.20
37530;DHT22;23374;52.758;6.872;2023-12-20T09:45:20;8.30;1.00
37530;DHT22;23374;52.758;6.872;2023-12-20T09:47:44;8.30;1.00
37530;DHT22;23374;52.758;6.872;2023-12-20T09:50:06;8.40;1.00
37530;DHT22;23374;52.758;6.872;2023-12-20T09:52:27;8.40;9.90
37530;DHT22;23374;52.758;6.872;2023-12-20T09:54:50;8.40;1.00
37530;DHT22;23374;52.758;6.872;2023-12-20T09:57:12;8.40;1.00
37530;DHT22;23374;52.758;6.872;2023-12-20T09:59:33;8.40;70.40
37530;DHT22;23374;52.758;6.872;2023-12-20T10:01:55;8.40;99.50
37530;DHT22;23374;52.758;6.872;2023-12-20T10:04:16;8.40;1.00
37530;DHT22;23374;52.758;6.872;2023-12-20T10:06:40;8.30;99.90
37530;DHT22;23374;52.758;6.872;2023-12-20T10:09:01;8.10;1.00
37530;DHT22;23374;52.758;6.872;2023-12-20T10:11:22;7.90;1.00
37530;DHT22;23374;52.758;6.872;2023-12-20T10:13:43;7.70;99.90
37530;DHT22;23374;52.758;6.872;2023-12-20T10:16:04;7.40;99.90
37530;DHT22;23374;52.758;6.872;2023-12-20T10:18:29;7.20;1.00
37530;DHT22;23374;52.758;6.872;2023-12-20T10:20:50;7.00;1.00
37530;DHT22;23374;52.758;6.872;2023-12-20T10:23:10;7.00;1.00
37530;DHT22;23374;52.758;6.872;2023-12-20T10:25:31;6.90;1.00
37530;DHT22;23374;52.758;6.872;2023-12-20T10:28:13;6.80;1.00
37530;DHT22;23374;52.758;6.872;2023-12-20T10:30:33;6.70;1.00
37530;DHT22;23374;52.758;6.872;2023-12-20T10:32:54;6.70;1.00
37530;DHT22;23374;52.758;6.872;2023-12-20T10:35:14;6.70;1.00
37530;DHT22;23374;52.758;6.872;2023-12-20T10:37:37;6.70;1.00
37530;DHT22;23374;52.758;6.872;2023-12-20T10:39:59;6.70;1.00
37530;DHT22;23374;52.758;6.872;2023-12-20T10:42:24;6.60;1.00
37530;DHT22;23374;52.758;6.872;2023-12-20T10:44:47;6.60;1.00
37530;DHT22;23374;52.758;6.872;2023-12-20T10:47:09;6.60;1.00
37530;DHT22;23374;52.758;6.872;2023-12-20T10:49:32;6.60;1.00
37530;DHT22;23374;52.758;6.872;2023-12-20T10:51:54;6.60;1.00
37530;DHT22;23374;52.758;6.872;2023-12-20T10:54:17;6.70;55.20
37530;DHT22;23374;52.758;6.872;2023-12-20T10:56:38;6.70;1.00
37530;DHT22;23374;52.758;6.872;2023-12-20T10:59:02;6.70;32.10
37530;DHT22;23374;52.758;6.872;2023-12-20T11:01:27;6.70;76.60
37530;DHT22;23374;52.758;6.872;2023-12-20T11:03:51;6.70;47.20
37530;DHT22;23374;52.758;6.872;2023-12-20T11:07:50;6.80;1.00
37530;DHT22;23374;52.758;6.872;2023-12-20T11:10:34;6.80;1.00
37530;DHT22;23374;52.758;6.872;2023-12-20T11:13:19;6.80;1.00
37530;DHT22;23374;52.758;6.872;2023-12-20T11:15:41;6.80;1.00
37530;DHT22;23374;52.758;6.872;2023-12-20T11:18:02;6.80;1.00
37530;DHT22;23374;52.758;6.872;2023-12-20T11:20:24;6.80;1.00
37530;DHT22;23374;52.758;6.872;2023-12-20T11:22:55;6.90;1.00
37530;DHT22;23374;52.758;6.872;2023-12-20T11:25:16;6.90;1.00
37530;DHT22;23374;52.758;6.872;2023-12-20T11:27:41;6.90;1.00
37530;DHT22;23374;52.758;6.872;2023-12-20T11:30:05;7.00;1.00
37530;DHT22;23374;52.758;6.872;2023-12-20T11:32:29;7.00;99.90
37530;DHT22;23374;52.758;6.872;2023-12-20T11:35:00;7.00;99.90
37530;DHT22;23374;52.758;6.872;2023-12-20T11:37:21;7.00;99.90
37530;DHT22;23374;52.758;6.872;2023-12-20T11:39:43;7.10;93.20
37530;DHT22;23374;52.758;6.872;2023-12-20T11:42:07;7.10;1.00
37530;DHT22;23374;52.758;6.872;2023-12-20T11:44:30;7.10;1.00
37530;DHT22;23374;52.758;6.872;2023-12-20T11:46:51;7.20;1.00
37530;DHT22;23374;52.758;6.872;2023-12-20T11:49:11;7.20;1.00
37530;DHT22;23374;52.758;6.872;2023-12-20T11:51:31;7.20;1.00
37530;DHT22;23374;52.758;6.872;2023-12-20T11:53:52;7.20;1.00
37530;DHT22;23374;52.758;6.872;2023-12-20T11:56:13;7.20;1.00
37530;DHT22;23374;52.758;6.872;2023-12-20T11:58:34;7.20;1.00
37530;DHT22;23374;52.758;6.872;2023-12-20T12:00:55;7.20;1.00
37530;DHT22;23374;52.758;6.872;2023-12-20T12:03:15;7.30;27.10
37530;DHT22;23374;52.758;6.872;2023-12-20T12:05:36;7.30;30.60
37530;DHT22;23374;52.758;6.872;2023-12-20T12:07:56;7.30;24.50
37530;DHT22;23374;52.758;6.872;2023-12-20T12:10:17;7.30;96.20
37530;DHT22;23374;52.758;6.872;2023-12-20T12:12:37;7.30;99.90
37530;DHT22;23374;52.758;6.872;2023-12-20T12:14:58;7.30;99.90
37530;DHT22;23374;52.758;6.872;2023-12-20T12:17:18;7.30;99.90
37530;DHT22;23374;52.758;6.872;2023-12-20T12:19:40;7.30;99.90
37530;DHT22;23374;52.758;6.872;2023-12-20T12:22:14;7.30;99.90
37530;DHT22;23374;52.758;6.872;2023-12-20T12:24:37;7.40;99.90
37530;DHT22;23374;52.758;6.872;2023-12-20T12:26:58;7.40;1.00
37530;DHT22;23374;52.758;6.872;2023-12-20T12:29:18;7.40;1.00
37530;DHT22;23374;52.758;6.872;2023-12-20T12:31:39;7.40;99.90
37530;DHT22;23374;52.758;6.872;2023-12-20T12:33:59;7.40;1.00
37530;DHT22;23374;52.758;6.872;2023-12-20T12:36:19;7.40;99.90
37530;DHT22;23374;52.758;6.872;2023-12-20T12:38:41;7.50;1.00
37530;DHT22;23374;52.758;6.872;2023-12-20T12:41:02;7.40;99.90
37530;DHT22;23374;52.758;6.872;2023-12-20T12:43:22;7.40;99.90
37530;DHT22;23374;52.758;6.872;2023-12-20T12:45:43;7.40;99.90
37530;DHT22;23374;52.758;6.872;2023-12-20T12:48:04;7.40;99.90
37530;DHT22;23374;52.758;6.872;2023-12-20T12:50:24;7.40;99.90
37530;DHT22;23374;52.758;6.872;2023-12-20T12:52:44;7.40;99.90
37530;DHT22;23374;52.758;6.872;2023-12-20T12:55:06;7.40;99.90
37530;DHT22;23374;52.758;6.872;2023-12-20T12:57:26;7.40;99.90
37530;DHT22;23374;52.758;6.872;2023-12-20T12:59:47;7.40;93.40
37530;DHT22;23374;52.758;6.872;2023-12-20T13:02:07;7.40;94.90
37530;DHT22;23374;52.758;6.872;2023-12-20T13:04:28;7.40;1.00
37530;DHT22;23374;52.758;6.872;2023-12-20T13:06:48;7.40;1.00
37530;DHT22;23374;52.758;6.872;2023-12-20T13:09:09;7.40;1.00
37530;DHT22;23374;52.758;6.872;2023-12-20T13:11:33;7.30;1.00
37530;DHT22;23374;52.758;6.872;2023-12-20T13:13:53;7.30;1.00
37530;DHT22;23374;52.758;6.872;2023-12-20T13:16:13;7.30;99.90
37530;DHT22;23374;52.758;6.872;2023-12-20T13:18:34;7.20;99.90
37530;DHT22;23374;52.758;6.872;2023-12-20T13:20:55;7.20;99.90
37530;DHT22;23374;52.758;6.872;2023-12-20T13:23:15;7.20;1.00
37530;DHT22;23374;52.758;6.872;2023-12-20T13:25:35;7.10;1.00
37530;DHT22;23374;52.758;6.872;2023-12-20T13:27:56;7.00;1.00
37530;DHT22;23374;52.758;6.872;2023-12-20T13:30:17;7.00;1.00
37530;DHT22;23374;52.758;6.872;2023-12-20T13:32:43;6.90;1.00
37530;DHT22;23374;52.758;6.872;2023-12-20T13:35:05;6.80;99.90
37530;DHT22;23374;52.758;6.872;2023-12-20T13:37:25;6.80;99.90
37530;DHT22;23374;52.758;6.872;2023-12-20T13:39:46;6.80;99.90
37530;DHT22;23374;52.758;6.872;2023-12-20T13:42:06;6.70;99.90
37530;DHT22;23374;52.758;6.872;2023-12-20T13:44:27;6.70;99.90
37530;DHT22;23374;52.758;6.872;2023-12-20T13:46:47;6.70;1.00
37530;DHT22;23374;52.758;6.872;2023-12-20T13:49:09;6.70;1.00
37530;DHT22;23374;52.758;6.872;2023-12-20T13:51:30;6.60;1.00
37530;DHT22;23374;52.758;6.872;2023-12-20T13:53:50;6.60;1.00
37530;DHT22;23374;52.758;6.872;2023-12-20T13:56:11;6.60;1.00
37530;DHT22;23374;52.758;6.872;2023-12-20T13:58:31;6.60;1.00
37530;DHT22;23374;52.758;6.872;2023-12-20T14:00:52;6.60;1.00
37530;DHT22;23374;52.758;6.872;2023-12-20T14:03:12;6.60;50.30
37530;DHT22;23374;52.758;6.872;2023-12-20T14:05:32;6.60;99.90
37530;DHT22;23374;52.758;6.872;2023-12-20T14:07:53;6.60;99.90
37530;DHT22;23374;52.758;6.872;2023-12-20T14:10:14;6.60;99.90
37530;DHT22;23374;52.758;6.872;2023-12-20T14:12:34;6.60;99.90
37530;DHT22;23374;52.758;6.872;2023-12-20T14:14:56;6.60;99.90
37530;DHT22;23374;52.758;6.872;2023-12-20T14:17:17;6.50;99.90
37530;DHT22;23374;52.758;6.872;2023-12-20T14:19:38;6.50;1.00
37530;DHT22;23374;52.758;6.872;2023-12-20T14:21:59;6.50;1.00
37530;DHT22;23374;52.758;6.872;2023-12-20T14:24:22;6.60;1.00
37530;DHT22;23374;52.758;6.872;2023-12-20T14:26:42;6.50;1.00
37530;DHT22;23374;52.758;6.872;2023-12-20T14:29:02;6.50;1.00
37530;DHT22;23374;52.758;6.872;2023-12-20T14:31:22;6.50;1.00
37530;DHT22;23374;52.758;6.872;2023-12-20T14:33:44;6.50;1.00
37530;DHT22;23374;52.758;6.872;2023-12-20T14:36:07;6.50;1.00
37530;DHT22;23374;52.758;6.872;2023-12-20T14:38:27;6.50;1.00
37530;DHT22;23374;52.758;6.872;2023-12-20T14:40:48;6.50;1.00
37530;DHT22;23374;52.758;6.872;2023-12-20T14:43:08;6.50;30.00
37530;DHT22;23374;52.758;6.872;2023-12-20T14:45:28;6.50;73.70
37530;DHT22;23374;52.758;6.872;2023-12-20T14:47:49;6.50;95.60
37530;DHT22;23374;52.758;6.872;2023-12-20T14:50:10;6.50;99.90
37530;DHT22;23374;52.758;6.872;2023-12-20T14:52:33;6.50;99.90
37530;DHT22;23374;52.758;6.872;2023-12-20T14:54:57;6.50;99.90
37530;DHT22;23374;52.758;6.872;2023-12-20T14:57:18;6.50;99.90
37530;DHT22;23374;52.758;6.872;2023-12-20T14:59:39;6.50;99.90
37530;DHT22;23374;52.758;6.872;2023-12-20T15:01:59;6.50;99.90
37530;DHT22;23374;52.758;6.872;2023-12-20T15:04:19;6.50;1.00
37530;DHT22;23374;52.758;6.872;2023-12-20T15:06:45;6.50;1.00
37530;DHT22;23374;52.758;6.872;2023-12-20T15:09:06;6.50;1.00
37530;DHT22;23374;52.758;6.872;2023-12-20T15:11:28;6.50;1.00
37530;DHT22;23374;52.758;6.872;2023-12-20T15:13:48;6.60;1.00
37530;DHT22;23374;52.758;6.872;2023-12-20T15:16:14;6.50;1.00